sensor_id;sensor_type;location;lat;lon;timestamp;pressure;altitude;pressure_sealevel;temperature;humidity
28456;BME280;15682;56.742;38.866;2023-02-01T00:01:11;98110.0;;;0.3;92.8
28456;BME280;15682;56.742;38.866;2023-02-01T00:03:11;98110.0;;;0.3;92.8
28456;BME280;15682;56.742;38.866;2023-02-01T00:05:11;98110.0;;;0.3;92.8
28456;BME280;15682;56.742;38.866;2023-02-01T00:07:11;98110.0;;;0.3;92.8
28456;BME280;15682;56.742;38.866;2023-02-01T00:09:11;98110.0;;;0.3;92.8
28456;BME280;15682;56.742;38.866;2023-02-01T00:11:12;98110.0;;;0.3;92.6
28456;BME280;15682;56.742;38.866;2023-02-01T00:13:11;98110.0;;;0.3;93.2
28456;BME280;15682;56.742;38.866;2023-02-01T00:15:11;98110.0;;;0.3;93.2
28456;BME280;15682;56.742;38.866;2023-02-01T00:17:11;98110.0;;;0.5;92.8
28456;BME280;15682;56.742;38.866;2023-02-01T00:19:13;98110.0;;;0.5;92.8
28456;BME280;15682;56.742;38.866;2023-02-01T00:21:11;98110.0;;;0.5;92.4
28456;BME280;15682;56.742;38.866;2023-02-01T00:23:10;98110.0;;;0.3;92.0
28456;BME280;15682;56.742;38.866;2023-02-01T00:25:10;98120.0;;;0.3;92.0
28456;BME280;15682;56.742;38.866;2023-02-01T00:27:10;98120.0;;;0.3;92.6
28456;BME280;15682;56.742;38.866;2023-02-01T00:29:13;98120.0;;;0.3;92.6
28456;BME280;15682;56.742;38.866;2023-02-01T00:31:10;98120.0;;;0.3;93.3
28456;BME280;15682;56.742;38.866;2023-02-01T00:33:10;98120.0;;;0.3;92.3
28456;BME280;15682;56.742;38.866;2023-02-01T00:35:10;98130.0;;;0.3;92.3
28456;BME280;15682;56.742;38.866;2023-02-01T00:37:10;98130.0;;;0.3;92.3
28456;BME280;15682;56.742;38.866;2023-02-01T00:39:10;98130.0;;;0.3;92.8
28456;BME280;15682;56.742;38.866;2023-02-01T00:41:12;98130.0;;;0.2;92.6
28456;BME280;15682;56.742;38.866;2023-02-01T00:43:10;98130.0;;;0.2;92.6
28456;BME280;15682;56.742;38.866;2023-02-01T00:45:10;98130.0;;;0.2;93.4
28456;BME280;15682;56.742;38.866;2023-02-01T00:47:09;98130.0;;;0.3;93.4
28456;BME280;15682;56.742;38.866;2023-02-01T00:49:09;98130.0;;;0.3;93.4
28456;BME280;15682;56.742;38.866;2023-02-01T00:51:12;98140.0;;;0.2;93.5
28456;BME280;15682;56.742;38.866;2023-02-01T00:53:09;98140.0;;;0.2;93.5
28456;BME280;15682;56.742;38.866;2023-02-01T00:55:09;98140.0;;;0.2;93.5
28456;BME280;15682;56.742;38.866;2023-02-01T00:57:09;98140.0;;;0.2;93.5
28456;BME280;15682;56.742;38.866;2023-02-01T00:59:11;98140.0;;;0.3;94.0
28456;BME280;15682;56.742;38.866;2023-02-01T01:01:11;98140.0;;;0.2;93.4
28456;BME280;15682;56.742;38.866;2023-02-01T01:03:09;98140.0;;;0.3;93.5
28456;BME280;15682;56.742;38.866;2023-02-01T01:05:08;98140.0;;;0.3;92.8
28456;BME280;15682;56.742;38.866;2023-02-01T01:07:08;98140.0;;;0.1;92.8
28456;BME280;15682;56.742;38.866;2023-02-01T01:09:09;98140.0;;;0.1;93.7
28456;BME280;15682;56.742;38.866;2023-02-01T01:11:10;98140.0;;;0.3;94.3
28456;BME280;15682;56.742;38.866;2023-02-01T01:13:09;98140.0;;;0.3;93.5
28456;BME280;15682;56.742;38.866;2023-02-01T01:15:09;98150.0;;;0.2;93.0
28456;BME280;15682;56.742;38.866;2023-02-01T01:17:08;98150.0;;;0.3;93.7
28456;BME280;15682;56.742;38.866;2023-02-01T01:19:08;98150.0;;;0.3;93.4
28456;BME280;15682;56.742;38.866;2023-02-01T01:21:09;98150.0;;;0.2;92.8
28456;BME280;15682;56.742;38.866;2023-02-01T01:23:08;98160.0;;;0.2;92.8
28456;BME280;15682;56.742;38.866;2023-02-01T01:25:08;98160.0;;;0.2;93.5
28456;BME280;15682;56.742;38.866;2023-02-01T01:27:08;98160.0;;;0.2;93.0
28456;BME280;15682;56.742;38.866;2023-02-01T01:29:09;98160.0;;;0.1;93.5
28456;BME280;15682;56.742;38.866;2023-02-01T01:31:08;98160.0;;;0.2;93.2
28456;BME280;15682;56.742;38.866;2023-02-01T01:33:07;98160.0;;;0.3;93.2
28456;BME280;15682;56.742;38.866;2023-02-01T01:35:08;98160.0;;;0.3;93.6
28456;BME280;15682;56.742;38.866;2023-02-01T01:37:07;98160.0;;;0.2;93.6
28456;BME280;15682;56.742;38.866;2023-02-01T01:39:07;98160.0;;;0.2;94.4
28456;BME280;15682;56.742;38.866;2023-02-01T01:41:08;98170.0;;;0.2;94.6
28456;BME280;15682;56.742;38.866;2023-02-01T01:43:13;98170.0;;;0.2;93.7
28456;BME280;15682;56.742;38.866;2023-02-01T01:45:19;98170.0;;;0.2;93.7
28456;BME280;15682;56.742;38.866;2023-02-01T01:47:07;98170.0;;;0.4;94.4
28456;BME280;15682;56.742;38.866;2023-02-01T01:49:10;98170.0;;;0.3;94.2
28456;BME280;15682;56.742;38.866;2023-02-01T01:51:09;98170.0;;;0.3;93.2
28456;BME280;15682;56.742;38.866;2023-02-01T01:53:09;98170.0;;;0.3;93.2
28456;BME280;15682;56.742;38.866;2023-02-01T01:55:07;98170.0;;;0.3;93.2
28456;BME280;15682;56.742;38.866;2023-02-01T01:57:10;98170.0;;;0.3;93.2
28456;BME280;15682;56.742;38.866;2023-02-01T01:59:07;98170.0;;;0.3;94.1
28456;BME280;15682;56.742;38.866;2023-02-01T02:01:06;98170.0;;;0.3;93.5
28456;BME280;15682;56.742;38.866;2023-02-01T02:03:11;98170.0;;;0.3;94.2
28456;BME280;15682;56.742;38.866;2023-02-01T02:05:07;98170.0;;;0.3;94.2
28456;BME280;15682;56.742;38.866;2023-02-01T02:07:10;98170.0;;;0.3;94.2
28456;BME280;15682;56.742;38.866;2023-02-01T02:09:06;98170.0;;;0.3;94.2
28456;BME280;15682;56.742;38.866;2023-02-01T02:11:06;98170.0;;;0.3;94.2
28456;BME280;15682;56.742;38.866;2023-02-01T02:13:06;98170.0;;;0.3;93.5
28456;BME280;15682;56.742;38.866;2023-02-01T02:15:06;98170.0;;;0.3;93.5
28456;BME280;15682;56.742;38.866;2023-02-01T02:17:23;98170.0;;;0.3;93.5
28456;BME280;15682;56.742;38.866;2023-02-01T02:19:32;98170.0;;;0.3;94.1
28456;BME280;15682;56.742;38.866;2023-02-01T02:21:13;98170.0;;;0.2;93.5
28456;BME280;15682;56.742;38.866;2023-02-01T02:23:20;98170.0;;;0.2;93.5
28456;BME280;15682;56.742;38.866;2023-02-01T02:25:22;98180.0;;;0.2;93.5
28456;BME280;15682;56.742;38.866;2023-02-01T02:27:12;98180.0;;;0.2;93.5
28456;BME280;15682;56.742;38.866;2023-02-01T02:31:21;98180.0;;;0.2;93.5
28456;BME280;15682;56.742;38.866;2023-02-01T02:35:10;98190.0;;;0.1;93.5
28456;BME280;15682;56.742;38.866;2023-02-01T02:37:13;98190.0;;;0.1;93.5
28456;BME280;15682;56.742;38.866;2023-02-01T02:39:07;98190.0;;;0.3;93.5
28456;BME280;15682;56.742;38.866;2023-02-01T02:41:15;98190.0;;;0.2;93.5
28456;BME280;15682;56.742;38.866;2023-02-01T02:43:08;98190.0;;;0.2;94.1
28456;BME280;15682;56.742;38.866;2023-02-01T02:45:07;98190.0;;;0.2;94.1
28456;BME280;15682;56.742;38.866;2023-02-01T02:47:12;98190.0;;;0.2;94.1
28456;BME280;15682;56.742;38.866;2023-02-01T02:49:09;98190.0;;;0.2;94.1
28456;BME280;15682;56.742;38.866;2023-02-01T02:51:07;98190.0;;;0.3;94.4
28456;BME280;15682;56.742;38.866;2023-02-01T02:53:09;98190.0;;;0.3;95.2
28456;BME280;15682;56.742;38.866;2023-02-01T02:55:05;98190.0;;;0.3;94.5
28456;BME280;15682;56.742;38.866;2023-02-01T02:57:07;98190.0;;;0.2;95.2
28456;BME280;15682;56.742;38.866;2023-02-01T02:59:05;98200.0;;;0.2;95.2
28456;BME280;15682;56.742;38.866;2023-02-01T03:01:04;98200.0;;;0.2;95.2
28456;BME280;15682;56.742;38.866;2023-02-01T03:03:04;98200.0;;;0.2;94.7
28456;BME280;15682;56.742;38.866;2023-02-01T03:05:04;98200.0;;;0.2;94.7
28456;BME280;15682;56.742;38.866;2023-02-01T03:07:13;98200.0;;;0.2;94.7
28456;BME280;15682;56.742;38.866;2023-02-01T03:09:10;98200.0;;;0.2;94.7
28456;BME280;15682;56.742;38.866;2023-02-01T03:11:05;98200.0;;;0.2;95.4
28456;BME280;15682;56.742;38.866;2023-02-01T03:13:06;98200.0;;;0.2;94.9
28456;BME280;15682;56.742;38.866;2023-02-01T03:15:08;98200.0;;;0.2;94.9
28456;BME280;15682;56.742;38.866;2023-02-01T03:17:06;98200.0;;;0.3;95.8
28456;BME280;15682;56.742;38.866;2023-02-01T03:19:06;98210.0;;;0.3;94.8
28456;BME280;15682;56.742;38.866;2023-02-01T03:21:08;98210.0;;;0.2;95.3
28456;BME280;15682;56.742;38.866;2023-02-01T03:23:04;98210.0;;;0.2;95.3
28456;BME280;15682;56.742;38.866;2023-02-01T03:25:07;98210.0;;;0.2;95.3
28456;BME280;15682;56.742;38.866;2023-02-01T03:27:08;98210.0;;;0.3;94.6
28456;BME280;15682;56.742;38.866;2023-02-01T03:29:09;98210.0;;;0.3;94.6
28456;BME280;15682;56.742;38.866;2023-02-01T03:31:02;98210.0;;;0.4;94.6
28456;BME280;15682;56.742;38.866;2023-02-01T03:33:06;98210.0;;;0.4;95.2
28456;BME280;15682;56.742;38.866;2023-02-01T03:35:03;98220.0;;;0.4;95.2
28456;BME280;15682;56.742;38.866;2023-02-01T03:37:04;98220.0;;;0.4;95.2
28456;BME280;15682;56.742;38.866;2023-02-01T03:39:07;98220.0;;;0.4;94.3
28456;BME280;15682;56.742;38.866;2023-02-01T03:41:07;98220.0;;;0.4;94.3
28456;BME280;15682;56.742;38.866;2023-02-01T03:43:05;98220.0;;;0.4;94.7
28456;BME280;15682;56.742;38.866;2023-02-01T03:45:06;98220.0;;;0.4;94.7
28456;BME280;15682;56.742;38.866;2023-02-01T03:47:04;98220.0;;;0.4;94.7
28456;BME280;15682;56.742;38.866;2023-02-01T03:49:06;98220.0;;;0.4;94.9
28456;BME280;15682;56.742;38.866;2023-02-01T03:51:04;98220.0;;;0.5;94.2
28456;BME280;15682;56.742;38.866;2023-02-01T03:53:04;98220.0;;;0.5;94.2
28456;BME280;15682;56.742;38.866;2023-02-01T03:55:02;98220.0;;;0.5;94.2
28456;BME280;15682;56.742;38.866;2023-02-01T03:57:06;98230.0;;;0.5;94.2
28456;BME280;15682;56.742;38.866;2023-02-01T03:59:01;98230.0;;;0.5;94.2
28456;BME280;15682;56.742;38.866;2023-02-01T04:01:01;98230.0;;;0.3;94.2
28456;BME280;15682;56.742;38.866;2023-02-01T04:03:02;98230.0;;;0.4;95.1
28456;BME280;15682;56.742;38.866;2023-02-01T04:05:01;98230.0;;;0.4;95.7
28456;BME280;15682;56.742;38.866;2023-02-01T04:07:01;98230.0;;;0.6;94.6
28456;BME280;15682;56.742;38.866;2023-02-01T04:09:01;98230.0;;;0.5;94.0
28456;BME280;15682;56.742;38.866;2023-02-01T04:11:01;98230.0;;;0.6;94.0
28456;BME280;15682;56.742;38.866;2023-02-01T04:13:01;98240.0;;;0.6;93.8
28456;BME280;15682;56.742;38.866;2023-02-01T04:15:01;98240.0;;;0.6;93.8
28456;BME280;15682;56.742;38.866;2023-02-01T04:17:01;98240.0;;;0.6;93.8
28456;BME280;15682;56.742;38.866;2023-02-01T04:19:01;98240.0;;;0.6;94.6
28456;BME280;15682;56.742;38.866;2023-02-01T04:21:01;98240.0;;;0.5;93.9
28456;BME280;15682;56.742;38.866;2023-02-01T04:23:01;98250.0;;;0.5;93.7
28456;BME280;15682;56.742;38.866;2023-02-01T04:25:01;98260.0;;;0.5;93.7
28456;BME280;15682;56.742;38.866;2023-02-01T04:27:01;98260.0;;;0.5;93.7
28456;BME280;15682;56.742;38.866;2023-02-01T04:29:01;98270.0;;;0.4;93.7
28456;BME280;15682;56.742;38.866;2023-02-01T04:31:00;98270.0;;;0.4;94.8
28456;BME280;15682;56.742;38.866;2023-02-01T04:33:00;98270.0;;;0.4;94.8
28456;BME280;15682;56.742;38.866;2023-02-01T04:35:00;98270.0;;;0.5;94.8
28456;BME280;15682;56.742;38.866;2023-02-01T04:37:00;98270.0;;;0.5;93.8
28456;BME280;15682;56.742;38.866;2023-02-01T04:39:00;98270.0;;;0.5;94.4
28456;BME280;15682;56.742;38.866;2023-02-01T04:41:00;98270.0;;;0.6;94.4
28456;BME280;15682;56.742;38.866;2023-02-01T04:43:00;98270.0;;;0.6;94.3
28456;BME280;15682;56.742;38.866;2023-02-01T04:45:00;98270.0;;;0.4;94.3
28456;BME280;15682;56.742;38.866;2023-02-01T04:47:00;98270.0;;;0.4;95.1
28456;BME280;15682;56.742;38.866;2023-02-01T04:49:00;98280.0;;;0.4;95.1
28456;BME280;15682;56.742;38.866;2023-02-01T04:51:00;98280.0;;;0.4;95.1
28456;BME280;15682;56.742;38.866;2023-02-01T04:53:00;98290.0;;;0.4;94.8
28456;BME280;15682;56.742;38.866;2023-02-01T04:55:00;98290.0;;;0.4;94.8
28456;BME280;15682;56.742;38.866;2023-02-01T04:57:00;98290.0;;;0.4;94.8
28456;BME280;15682;56.742;38.866;2023-02-01T04:58:59;98290.0;;;0.4;94.8
28456;BME280;15682;56.742;38.866;2023-02-01T05:01:02;98290.0;;;0.3;94.8
28456;BME280;15682;56.742;38.866;2023-02-01T05:02:59;98290.0;;;0.3;95.2
28456;BME280;15682;56.742;38.866;2023-02-01T05:04:59;98290.0;;;0.3;95.2
28456;BME280;15682;56.742;38.866;2023-02-01T05:06:59;98290.0;;;0.3;95.2
28456;BME280;15682;56.742;38.866;2023-02-01T05:08:59;98290.0;;;0.3;95.2
28456;BME280;15682;56.742;38.866;2023-02-01T05:10:59;98290.0;;;0.2;95.9
28456;BME280;15682;56.742;38.866;2023-02-01T05:12:59;98290.0;;;0.2;95.9
28456;BME280;15682;56.742;38.866;2023-02-01T05:14:59;98290.0;;;0.2;95.9
28456;BME280;15682;56.742;38.866;2023-02-01T05:16:59;98290.0;;;0.1;95.9
28456;BME280;15682;56.742;38.866;2023-02-01T05:18:59;98300.0;;;0.1;96.4
28456;BME280;15682;56.742;38.866;2023-02-01T05:20:59;98300.0;;;0.1;96.4
28456;BME280;15682;56.742;38.866;2023-02-01T05:22:59;98310.0;;;0.1;96.6
28456;BME280;15682;56.742;38.866;2023-02-01T05:24:58;98310.0;;;0.1;96.6
28456;BME280;15682;56.742;38.866;2023-02-01T05:26:58;98320.0;;;0.1;96.6
28456;BME280;15682;56.742;38.866;2023-02-01T05:28:59;98320.0;;;0.2;96.6
28456;BME280;15682;56.742;38.866;2023-02-01T05:30:58;98320.0;;;0.2;96.6
28456;BME280;15682;56.742;38.866;2023-02-01T05:32:58;98320.0;;;0.1;96.3
28456;BME280;15682;56.742;38.866;2023-02-01T05:34:58;98320.0;;;0.1;96.3
28456;BME280;15682;56.742;38.866;2023-02-01T05:36:58;98320.0;;;0.1;96.3
28456;BME280;15682;56.742;38.866;2023-02-01T05:38:58;98320.0;;;0.2;96.3
28456;BME280;15682;56.742;38.866;2023-02-01T05:40:58;98320.0;;;0.2;96.3
28456;BME280;15682;56.742;38.866;2023-02-01T05:42:58;98320.0;;;0.2;96.4
28456;BME280;15682;56.742;38.866;2023-02-01T05:44:58;98320.0;;;0.2;96.4
28456;BME280;15682;56.742;38.866;2023-02-01T05:46:58;98330.0;;;0.2;96.4
28456;BME280;15682;56.742;38.866;2023-02-01T05:48:58;98330.0;;;0.2;96.4
28456;BME280;15682;56.742;38.866;2023-02-01T05:50:58;98330.0;;;0.3;95.9
28456;BME280;15682;56.742;38.866;2023-02-01T05:52:57;98340.0;;;0.3;95.9
28456;BME280;15682;56.742;38.866;2023-02-01T05:54:57;98340.0;;;0.3;95.9
28456;BME280;15682;56.742;38.866;2023-02-01T05:56:57;98340.0;;;0.3;95.9
28456;BME280;15682;56.742;38.866;2023-02-01T05:58:57;98340.0;;;0.2;95.9
28456;BME280;15682;56.742;38.866;2023-02-01T06:00:59;98340.0;;;0.2;95.9
28456;BME280;15682;56.742;38.866;2023-02-01T06:02:57;98340.0;;;0.2;95.9
28456;BME280;15682;56.742;38.866;2023-02-01T06:04:57;98340.0;;;0.3;95.9
28456;BME280;15682;56.742;38.866;2023-02-01T06:06:57;98340.0;;;0.3;95.4
28456;BME280;15682;56.742;38.866;2023-02-01T06:08:57;98340.0;;;0.3;95.4
28456;BME280;15682;56.742;38.866;2023-02-01T06:10:58;98340.0;;;0.3;95.4
28456;BME280;15682;56.742;38.866;2023-02-01T06:12:57;98340.0;;;0.3;95.2
28456;BME280;15682;56.742;38.866;2023-02-01T06:14:57;98340.0;;;0.3;95.2
28456;BME280;15682;56.742;38.866;2023-02-01T06:16:57;98340.0;;;0.2;95.2
28456;BME280;15682;56.742;38.866;2023-02-01T06:18:57;98340.0;;;0.2;95.2
28456;BME280;15682;56.742;38.866;2023-02-01T06:20:58;98350.0;;;0.2;95.2
28456;BME280;15682;56.742;38.866;2023-02-01T06:22:56;98350.0;;;0.4;95.3
28456;BME280;15682;56.742;38.866;2023-02-01T06:24:56;98350.0;;;0.4;95.3
28456;BME280;15682;56.742;38.866;2023-02-01T06:26:56;98350.0;;;0.4;94.8
28456;BME280;15682;56.742;38.866;2023-02-01T06:28:56;98350.0;;;0.4;94.8
28456;BME280;15682;56.742;38.866;2023-02-01T06:30:56;98350.0;;;0.5;94.8
28456;BME280;15682;56.742;38.866;2023-02-01T06:32:56;98360.0;;;0.5;94.8
28456;BME280;15682;56.742;38.866;2023-02-01T06:34:56;98360.0;;;0.5;94.8
28456;BME280;15682;56.742;38.866;2023-02-01T06:36:56;98370.0;;;0.5;94.8
28456;BME280;15682;56.742;38.866;2023-02-01T06:38:56;98370.0;;;0.5;95.4
28456;BME280;15682;56.742;38.866;2023-02-01T06:40:57;98370.0;;;0.5;94.9
28456;BME280;15682;56.742;38.866;2023-02-01T06:42:56;98370.0;;;0.5;95.1
28456;BME280;15682;56.742;38.866;2023-02-01T06:44:56;98370.0;;;0.5;95.1
28456;BME280;15682;56.742;38.866;2023-02-01T06:46:55;98370.0;;;0.5;95.1
28456;BME280;15682;56.742;38.866;2023-02-01T06:48:55;98370.0;;;0.5;95.1
28456;BME280;15682;56.742;38.866;2023-02-01T06:50:55;98370.0;;;0.5;95.1
28456;BME280;15682;56.742;38.866;2023-02-01T06:52:56;98370.0;;;0.5;94.7
28456;BME280;15682;56.742;38.866;2023-02-01T06:54:55;98370.0;;;0.5;94.7
28456;BME280;15682;56.742;38.866;2023-02-01T06:56:55;98370.0;;;0.5;94.7
28456;BME280;15682;56.742;38.866;2023-02-01T06:58:55;98370.0;;;0.5;94.7
28456;BME280;15682;56.742;38.866;2023-02-01T07:00:55;98370.0;;;0.4;94.7
28456;BME280;15682;56.742;38.866;2023-02-01T07:02:56;98370.0;;;0.4;94.8
28456;BME280;15682;56.742;38.866;2023-02-01T07:04:55;98370.0;;;0.3;94.8
28456;BME280;15682;56.742;38.866;2023-02-01T07:06:55;98380.0;;;0.3;94.8
28456;BME280;15682;56.742;38.866;2023-02-01T07:08:55;98380.0;;;0.3;94.8
28456;BME280;15682;56.742;38.866;2023-02-01T07:10:55;98380.0;;;0.4;94.4
28456;BME280;15682;56.742;38.866;2023-02-01T07:12:56;98380.0;;;0.5;94.4
28456;BME280;15682;56.742;38.866;2023-02-01T07:14:54;98380.0;;;0.3;94.4
28456;BME280;15682;56.742;38.866;2023-02-01T07:16:54;98380.0;;;0.3;94.4
28456;BME280;15682;56.742;38.866;2023-02-01T07:18:54;98390.0;;;0.3;94.4
28456;BME280;15682;56.742;38.866;2023-02-01T07:20:55;98390.0;;;0.4;94.4
28456;BME280;15682;56.742;38.866;2023-02-01T07:22:55;98390.0;;;0.4;94.3
28456;BME280;15682;56.742;38.866;2023-02-01T07:24:54;98390.0;;;0.4;94.3
28456;BME280;15682;56.742;38.866;2023-02-01T07:26:54;98390.0;;;0.5;94.3
28456;BME280;15682;56.742;38.866;2023-02-01T07:28:54;98390.0;;;0.5;94.3
28456;BME280;15682;56.742;38.866;2023-02-01T07:30:54;98390.0;;;0.5;94.3
28456;BME280;15682;56.742;38.866;2023-02-01T07:32:54;98390.0;;;0.5;94.2
28456;BME280;15682;56.742;38.866;2023-02-01T07:34:54;98390.0;;;0.5;94.2
28456;BME280;15682;56.742;38.866;2023-02-01T07:36:54;98390.0;;;0.5;94.2
28456;BME280;15682;56.742;38.866;2023-02-01T07:38:53;98390.0;;;0.6;93.6
28456;BME280;15682;56.742;38.866;2023-02-01T07:40:57;98390.0;;;0.6;93.6
28456;BME280;15682;56.742;38.866;2023-02-01T07:42:53;98390.0;;;0.6;93.7
28456;BME280;15682;56.742;38.866;2023-02-01T07:44:53;98400.0;;;0.7;93.0
28456;BME280;15682;56.742;38.866;2023-02-01T07:46:53;98400.0;;;0.7;93.0
28456;BME280;15682;56.742;38.866;2023-02-01T07:48:53;98400.0;;;0.7;92.4
28456;BME280;15682;56.742;38.866;2023-02-01T07:50:58;98400.0;;;0.7;92.4
28456;BME280;15682;56.742;38.866;2023-02-01T07:52:53;98400.0;;;0.7;92.3
28456;BME280;15682;56.742;38.866;2023-02-01T07:54:53;98400.0;;;0.7;92.3
28456;BME280;15682;56.742;38.866;2023-02-01T07:56:53;98400.0;;;0.7;91.9
28456;BME280;15682;56.742;38.866;2023-02-01T07:58:54;98400.0;;;0.7;91.9
28456;BME280;15682;56.742;38.866;2023-02-01T08:00:53;98410.0;;;0.8;91.9
28456;BME280;15682;56.742;38.866;2023-02-01T08:02:53;98410.0;;;0.8;91.9
28456;BME280;15682;56.742;38.866;2023-02-01T08:04:53;98410.0;;;0.9;91.9
28456;BME280;15682;56.742;38.866;2023-02-01T08:06:52;98410.0;;;0.9;91.9
28456;BME280;15682;56.742;38.866;2023-02-01T08:08:53;98410.0;;;0.9;91.9
28456;BME280;15682;56.742;38.866;2023-02-01T08:10:57;98410.0;;;0.8;91.9
28456;BME280;15682;56.742;38.866;2023-02-01T08:12:58;98410.0;;;0.8;91.6
28456;BME280;15682;56.742;38.866;2023-02-01T08:14:52;98410.0;;;0.8;91.6
28456;BME280;15682;56.742;38.866;2023-02-01T08:16:52;98410.0;;;0.8;91.2
28456;BME280;15682;56.742;38.866;2023-02-01T08:18:53;98410.0;;;0.8;92.0
28456;BME280;15682;56.742;38.866;2023-02-01T08:20:52;98410.0;;;0.9;92.0
28456;BME280;15682;56.742;38.866;2023-02-01T08:22:52;98410.0;;;0.9;91.3
28456;BME280;15682;56.742;38.866;2023-02-01T08:24:52;98410.0;;;0.9;91.3
28456;BME280;15682;56.742;38.866;2023-02-01T08:26:52;98410.0;;;0.9;91.3
28456;BME280;15682;56.742;38.866;2023-02-01T08:28:53;98420.0;;;1.0;90.7
28456;BME280;15682;56.742;38.866;2023-02-01T08:30:52;98420.0;;;1.0;90.7
28456;BME280;15682;56.742;38.866;2023-02-01T08:32:52;98420.0;;;1.0;90.3
28456;BME280;15682;56.742;38.866;2023-02-01T08:34:52;98420.0;;;1.0;90.3
28456;BME280;15682;56.742;38.866;2023-02-01T08:36:52;98420.0;;;1.0;90.3
28456;BME280;15682;56.742;38.866;2023-02-01T08:38:52;98420.0;;;1.0;90.3
28456;BME280;15682;56.742;38.866;2023-02-01T08:40:51;98420.0;;;1.0;90.3
28456;BME280;15682;56.742;38.866;2023-02-01T08:42:51;98420.0;;;1.0;90.7
28456;BME280;15682;56.742;38.866;2023-02-01T08:44:51;98420.0;;;0.9;90.1
28456;BME280;15682;56.742;38.866;2023-02-01T08:46:51;98420.0;;;0.9;90.1
28456;BME280;15682;56.742;38.866;2023-02-01T08:48:52;98420.0;;;0.9;90.1
28456;BME280;15682;56.742;38.866;2023-02-01T08:50:51;98420.0;;;1.0;90.1
28456;BME280;15682;56.742;38.866;2023-02-01T08:52:52;98420.0;;;1.0;90.6
28456;BME280;15682;56.742;38.866;2023-02-01T08:54:51;98420.0;;;1.0;90.6
28456;BME280;15682;56.742;38.866;2023-02-01T08:56:51;98410.0;;;0.9;90.6
28456;BME280;15682;56.742;38.866;2023-02-01T08:58:51;98410.0;;;1.0;90.6
28456;BME280;15682;56.742;38.866;2023-02-01T09:00:51;98410.0;;;1.1;90.6
28456;BME280;15682;56.742;38.866;2023-02-01T09:02:51;98410.0;;;1.1;90.3
28456;BME280;15682;56.742;38.866;2023-02-01T09:04:51;98410.0;;;1.1;90.3
28456;BME280;15682;56.742;38.866;2023-02-01T09:06:51;98410.0;;;1.1;90.3
28456;BME280;15682;56.742;38.866;2023-02-01T09:08:50;98410.0;;;1.1;91.3
28456;BME280;15682;56.742;38.866;2023-02-01T09:10:50;98410.0;;;1.0;90.6
28456;BME280;15682;56.742;38.866;2023-02-01T09:12:50;98420.0;;;1.0;90.4
28456;BME280;15682;56.742;38.866;2023-02-01T09:14:50;98420.0;;;1.0;90.4
28456;BME280;15682;56.742;38.866;2023-02-01T09:16:50;98420.0;;;1.2;90.4
28456;BME280;15682;56.742;38.866;2023-02-01T09:18:50;98420.0;;;1.2;89.5
28456;BME280;15682;56.742;38.866;2023-02-01T09:20:50;98420.0;;;1.1;89.5
28456;BME280;15682;56.742;38.866;2023-02-01T09:22:50;98420.0;;;1.1;89.5
28456;BME280;15682;56.742;38.866;2023-02-01T09:24:50;98420.0;;;1.3;89.5
28456;BME280;15682;56.742;38.866;2023-02-01T09:26:50;98420.0;;;1.5;88.9
28456;BME280;15682;56.742;38.866;2023-02-01T09:28:50;98410.0;;;1.6;88.9
28456;BME280;15682;56.742;38.866;2023-02-01T09:30:55;98410.0;;;1.6;88.0
28456;BME280;15682;56.742;38.866;2023-02-01T09:32:50;98410.0;;;2.0;87.9
28456;BME280;15682;56.742;38.866;2023-02-01T09:34:51;98410.0;;;1.9;87.2
28456;BME280;15682;56.742;38.866;2023-02-01T09:36:50;98410.0;;;1.7;87.8
28456;BME280;15682;56.742;38.866;2023-02-01T09:38:50;98410.0;;;1.4;89.1
28456;BME280;15682;56.742;38.866;2023-02-01T09:40:50;98410.0;;;1.3;89.7
28456;BME280;15682;56.742;38.866;2023-02-01T09:43:00;98410.0;;;1.3;90.3
28456;BME280;15682;56.742;38.866;2023-02-01T09:45:00;98410.0;;;1.3;90.3
28456;BME280;15682;56.742;38.866;2023-02-01T09:46:53;98410.0;;;1.3;90.3
28456;BME280;15682;56.742;38.866;2023-02-01T09:48:52;98410.0;;;1.5;89.8
28456;BME280;15682;56.742;38.866;2023-02-01T09:50:52;98410.0;;;1.5;89.1
28456;BME280;15682;56.742;38.866;2023-02-01T09:52:54;98420.0;;;1.5;89.1
28456;BME280;15682;56.742;38.866;2023-02-01T09:54:52;98420.0;;;1.6;89.1
28456;BME280;15682;56.742;38.866;2023-02-01T09:56:53;98420.0;;;1.6;88.6
28456;BME280;15682;56.742;38.866;2023-02-01T09:58:56;98420.0;;;1.7;88.6
28456;BME280;15682;56.742;38.866;2023-02-01T10:00:52;98420.0;;;1.6;88.4
28456;BME280;15682;56.742;38.866;2023-02-01T10:02:50;98420.0;;;1.8;87.7
28456;BME280;15682;56.742;38.866;2023-02-01T10:04:49;98420.0;;;1.8;87.7
28456;BME280;15682;56.742;38.866;2023-02-01T10:07:00;98420.0;;;1.8;87.7
28456;BME280;15682;56.742;38.866;2023-02-01T10:09:02;98420.0;;;1.6;87.7
28456;BME280;15682;56.742;38.866;2023-02-01T10:10:49;98420.0;;;1.5;87.7
28456;BME280;15682;56.742;38.866;2023-02-01T10:14:57;98420.0;;;1.5;87.8
28456;BME280;15682;56.742;38.866;2023-02-01T10:16:53;98420.0;;;1.5;88.4
28456;BME280;15682;56.742;38.866;2023-02-01T10:18:57;98420.0;;;1.5;88.4
28456;BME280;15682;56.742;38.866;2023-02-01T10:20:56;98420.0;;;1.5;88.4
28456;BME280;15682;56.742;38.866;2023-02-01T10:22:54;98420.0;;;1.5;88.1
28456;BME280;15682;56.742;38.866;2023-02-01T10:24:51;98420.0;;;1.4;88.1
28456;BME280;15682;56.742;38.866;2023-02-01T10:26:53;98420.0;;;1.4;88.1
28456;BME280;15682;56.742;38.866;2023-02-01T10:28:51;98420.0;;;1.4;88.1
28456;BME280;15682;56.742;38.866;2023-02-01T10:30:49;98420.0;;;1.5;87.9
28456;BME280;15682;56.742;38.866;2023-02-01T10:32:52;98420.0;;;1.4;87.9
28456;BME280;15682;56.742;38.866;2023-02-01T10:34:52;98420.0;;;1.4;87.9
28456;BME280;15682;56.742;38.866;2023-02-01T10:36:53;98420.0;;;1.4;87.9
28456;BME280;15682;56.742;38.866;2023-02-01T10:38:48;98420.0;;;1.4;87.9
28456;BME280;15682;56.742;38.866;2023-02-01T10:40:48;98420.0;;;1.4;87.9
28456;BME280;15682;56.742;38.866;2023-02-01T10:42:49;98420.0;;;1.4;88.3
28456;BME280;15682;56.742;38.866;2023-02-01T10:44:48;98420.0;;;1.4;88.3
28456;BME280;15682;56.742;38.866;2023-02-01T10:46:48;98420.0;;;1.4;88.3
28456;BME280;15682;56.742;38.866;2023-02-01T10:48:48;98420.0;;;1.6;88.3
28456;BME280;15682;56.742;38.866;2023-02-01T10:50:53;98420.0;;;1.4;88.3
28456;BME280;15682;56.742;38.866;2023-02-01T10:52:52;98420.0;;;1.4;88.1
28456;BME280;15682;56.742;38.866;2023-02-01T10:54:47;98420.0;;;1.4;88.1
28456;BME280;15682;56.742;38.866;2023-02-01T10:56:49;98420.0;;;1.3;88.1
28456;BME280;15682;56.742;38.866;2023-02-01T10:58:48;98420.0;;;1.3;88.1
28456;BME280;15682;56.742;38.866;2023-02-01T11:00:52;98420.0;;;1.2;88.1
28456;BME280;15682;56.742;38.866;2023-02-01T11:02:47;98420.0;;;1.2;88.3
28456;BME280;15682;56.742;38.866;2023-02-01T11:04:47;98420.0;;;1.2;88.3
28456;BME280;15682;56.742;38.866;2023-02-01T11:06:51;98420.0;;;1.2;88.3